Time;durP1;ratioP1;P1;durP2;ratioP2;P2;SDS_P1;SDS_P2;PMS_P1;PMS_P2;Temp;Humidity;BMP_temperature;BMP_pressure;BME280_temperature;BME280_humidity;BME280_pressure;Samples;Min_cycle;Max_cycle;Signal;HPM_P1;HPM_P2
2022/05/29 00:01:16;;;;;;;4.03;1.90;;;11.10;99.90;;;;;;5045359;28;20239;-75
2022/05/29 00:03:43;;;;;;;3.90;1.57;;;11.10;99.90;;;;;;5047170;28;20239;-75
2022/05/29 00:06:11;;;;;;;4.23;1.70;;;11.00;99.90;;;;;;5065741;28;20200;-75
2022/05/29 00:08:40;;;;;;;4.60;1.80;;;10.90;99.90;;;;;;5065785;28;20227;-75
2022/05/29 00:11:10;;;;;;;5.63;2.00;;;10.80;99.90;;;;;;5065911;28;20215;-75
2022/05/29 00:13:37;;;;;;;3.40;1.80;;;10.80;99.90;;;;;;5053809;28;20270;-76
2022/05/29 00:16:06;;;;;;;4.50;1.80;;;10.80;99.90;;;;;;5062287;28;20261;-75
2022/05/29 00:18:36;;;;;;;2.63;1.80;;;10.70;99.90;;;;;;5060966;28;20673;-74
2022/05/29 00:21:07;;;;;;;2.77;1.80;;;10.70;99.90;;;;;;5056038;28;20290;-73
2022/05/29 00:23:39;;;;;;;2.87;1.70;;;10.80;99.90;;;;;;5045239;28;20197;-73
2022/05/29 00:26:05;;;;;;;4.30;1.57;;;10.80;99.90;;;;;;5052334;28;20590;-74
2022/05/29 00:28:32;;;;;;;4.90;1.67;;;10.80;99.90;;;;;;5045037;28;20623;-73
2022/05/29 00:30:59;;;;;;;6.37;2.10;;;10.90;99.90;;;;;;5044185;28;20675;-74
2022/05/29 00:33:25;;;;;;;4.33;1.83;;;10.90;99.90;;;;;;5061781;28;20199;-73
2022/05/29 00:35:54;;;;;;;6.03;2.27;;;10.90;99.90;;;;;;5064806;28;20215;-73
2022/05/29 00:38:21;;;;;;;3.53;1.67;;;10.90;99.90;;;;;;5064746;28;20240;-76
2022/05/29 00:40:56;;;;;;;4.07;1.43;;;10.90;99.90;;;;;;5064647;28;20740;-74
2022/05/29 00:43:23;;;;;;;3.93;1.60;;;10.90;99.90;;;;;;5048370;28;20225;-73
2022/05/29 00:45:53;;;;;;;5.17;1.77;;;10.80;99.90;;;;;;5044587;28;20208;-74
2022/05/29 00:48:21;;;;;;;8.73;1.67;;;10.80;99.90;;;;;;5057161;28;20621;-75
2022/05/29 00:50:50;;;;;;;6.47;1.90;;;10.80;99.90;;;;;;5060798;28;20220;-74
2022/05/29 00:53:19;;;;;;;6.23;1.80;;;10.80;99.90;;;;;;5045347;28;20900;-75
2022/05/29 00:55:50;;;;;;;4.23;1.37;;;10.80;99.90;;;;;;5045410;28;20200;-75
2022/05/29 00:58:17;;;;;;;4.07;1.43;;;10.80;99.90;;;;;;5048581;28;20834;-76
2022/05/29 01:00:44;;;;;;;6.10;1.57;;;10.80;99.90;;;;;;5048368;28;20239;-75
2022/05/29 01:03:11;;;;;;;5.20;1.53;;;10.90;99.90;;;;;;5062181;28;20199;-74
2022/05/29 01:05:38;;;;;;;2.53;1.50;;;10.90;99.90;;;;;;5068534;28;20203;-74
2022/05/29 01:08:10;;;;;;;5.53;1.70;;;11.00;99.90;;;;;;5067948;28;20208;-74
2022/05/29 01:10:52;;;;;;;5.10;1.30;;;11.00;99.90;;;;;;5067895;28;20863;-76
2022/05/29 01:13:26;;;;;;;3.57;1.70;;;11.00;99.90;;;;;;5052959;28;20227;-75
2022/05/29 01:16:00;;;;;;;3.77;1.73;;;11.00;99.90;;;;;;5048059;28;20196;-75
2022/05/29 01:18:35;;;;;;;3.23;1.67;;;10.90;99.90;;;;;;5048190;28;20196;-74
2022/05/29 01:21:19;;;;;;;2.77;1.50;;;10.80;99.90;;;;;;5052740;28;20227;-74
2022/05/29 01:24:38;;;;;;;3.50;1.77;;;11.00;99.90;;;;;;5047759;28;20987;-75
2022/05/29 01:27:43;;;;;;;3.40;1.70;;;10.90;99.90;;;;;;4985918;28;20724;-74
2022/05/29 01:30:15;;;;;;;3.13;1.80;;;11.00;99.90;;;;;;4938619;29;20207;-75
2022/05/29 01:32:50;;;;;;;3.03;2.10;;;11.00;99.90;;;;;;5036978;28;21030;-76
2022/05/29 01:35:23;;;;;;;5.97;4.17;;;11.00;99.90;;;;;;5066136;28;20202;-75
2022/05/29 01:37:54;;;;;;;6.90;5.43;;;11.00;99.90;;;;;;5067889;28;20200;-74
2022/05/29 01:40:34;;;;;;;6.13;1.67;;;11.00;99.90;;;;;;5068125;28;20223;-74
2022/05/29 01:43:10;;;;;;;3.20;1.50;;;11.00;99.90;;;;;;5052219;28;20260;-74
2022/05/29 01:45:54;;;;;;;5.30;1.80;;;10.90;99.90;;;;;;5058942;28;20653;-74
2022/05/29 01:48:28;;;;;;;4.47;1.90;;;10.90;99.90;;;;;;5057590;28;20208;-74
2022/05/29 01:50:58;;;;;;;3.60;1.73;;;10.80;99.90;;;;;;5047562;28;20642;-74
2022/05/29 01:53:32;;;;;;;3.93;1.50;;;10.90;99.90;;;;;;5065362;28;20677;-74
2022/05/29 01:56:04;;;;;;;2.57;1.70;;;10.80;99.90;;;;;;5067434;28;20203;-74
2022/05/29 01:58:36;;;;;;;5.00;2.10;;;10.70;99.90;;;;;;5049559;28;20192;-74
2022/05/29 02:01:10;;;;;;;3.67;1.80;;;10.70;99.90;;;;;;5054519;28;20223;-73
2022/05/29 02:03:39;;;;;;;5.27;1.53;;;10.70;99.90;;;;;;5067407;28;20244;-74
2022/05/29 02:06:11;;;;;;;4.23;1.60;;;10.70;99.90;;;;;;5067166;28;20211;-74
2022/05/29 02:08:44;;;;;;;7.20;1.73;;;10.70;99.90;;;;;;5054663;28;20735;-74
2022/05/29 02:11:14;;;;;;;4.03;1.60;;;10.60;99.90;;;;;;5067456;28;20634;-74
2022/05/29 02:13:46;;;;;;;5.73;1.57;;;10.70;99.90;;;;;;5062584;28;20192;-73
2022/05/29 02:16:17;;;;;;;4.83;1.80;;;10.60;99.90;;;;;;5046725;28;20709;-74
2022/05/29 02:18:49;;;;;;;4.77;1.67;;;10.60;99.90;;;;;;5066580;28;20501;-75
2022/05/29 02:21:20;;;;;;;3.57;1.80;;;10.60;99.90;;;;;;5057525;28;20231;-75
2022/05/29 02:23:51;;;;;;;6.17;1.80;;;10.60;99.90;;;;;;5064120;28;20227;-76
2022/05/29 02:26:20;;;;;;;5.60;1.60;;;10.60;99.90;;;;;;5066446;28;20203;-73
2022/05/29 02:28:50;;;;;;;3.93;1.73;;;10.50;99.90;;;;;;5066693;28;20252;-73
2022/05/29 02:31:29;;;;;;;4.17;1.70;;;10.60;99.90;;;;;;5066551;28;20631;-74
2022/05/29 02:34:00;;;;;;;3.50;2.10;;;10.50;99.90;;;;;;5055672;28;20241;-74
2022/05/29 02:36:36;;;;;;;4.63;1.73;;;10.50;99.90;;;;;;5050129;28;20196;-74
2022/05/29 02:39:29;;;;;;;3.57;1.50;;;10.50;99.90;;;;;;5046326;28;20261;-73
2022/05/29 02:42:06;;;;;;;4.77;1.70;;;10.50;99.90;;;;;;5045964;28;20337;-73
2022/05/29 02:44:39;;;;;;;4.73;2.10;;;10.50;99.90;;;;;;5050761;28;20394;-74
2022/05/29 02:47:20;;;;;;;6.43;2.00;;;10.50;99.90;;;;;;5046662;28;20298;-73
2022/05/29 02:49:54;;;;;;;5.90;1.77;;;10.40;99.90;;;;;;5047056;28;20200;-74
2022/05/29 02:52:21;;;;;;;3.77;2.03;;;10.40;99.90;;;;;;5052097;28;20933;-75
2022/05/29 02:54:48;;;;;;;6.37;2.03;;;10.50;99.90;;;;;;5058049;28;20960;-74
2022/05/29 02:57:15;;;;;;;2.47;1.90;;;10.50;99.90;;;;;;5066088;28;20647;-74
2022/05/29 02:59:45;;;;;;;4.27;1.50;;;10.50;99.90;;;;;;5066337;28;20211;-73
2022/05/29 03:02:24;;;;;;;3.07;1.87;;;10.60;99.90;;;;;;5065431;28;20231;-74
2022/05/29 03:04:56;;;;;;;3.27;1.70;;;10.60;99.90;;;;;;5047573;28;20204;-75
2022/05/29 03:07:32;;;;;;;2.33;1.60;;;10.50;99.90;;;;;;5046384;28;20202;-75
2022/05/29 03:10:08;;;;;;;3.37;1.87;;;10.60;99.90;;;;;;5045813;28;20231;-75
2022/05/29 03:12:43;;;;;;;3.73;1.70;;;10.50;99.90;;;;;;5052566;28;20191;-74
2022/05/29 03:15:20;;;;;;;2.03;1.50;;;10.50;99.90;;;;;;5064967;28;20233;-74
2022/05/29 03:17:55;;;;;;;3.33;1.77;;;10.50;99.90;;;;;;5054839;28;20725;-74
2022/05/29 03:20:31;;;;;;;3.97;2.13;;;10.50;99.90;;;;;;5065006;28;20658;-73
2022/05/29 03:23:04;;;;;;;4.83;1.87;;;10.50;99.90;;;;;;5064498;28;20199;-74
2022/05/29 03:25:34;;;;;;;4.20;1.57;;;10.70;99.90;;;;;;5046443;28;20200;-74
2022/05/29 03:28:03;;;;;;;3.30;1.70;;;10.70;99.90;;;;;;5054160;28;20211;-75
2022/05/29 03:30:32;;;;;;;4.77;2.43;;;10.70;99.90;;;;;;5068046;28;20215;-74
2022/05/29 03:33:04;;;;;;;2.97;2.10;;;10.60;99.90;;;;;;5067053;28;20203;-74
2022/05/29 03:35:33;;;;;;;4.43;1.83;;;10.60;99.90;;;;;;5068178;28;20196;-74
2022/05/29 03:38:03;;;;;;;5.20;2.10;;;10.60;99.90;;;;;;5067916;28;20215;-74
2022/05/29 03:40:31;;;;;;;4.47;2.07;;;10.60;99.90;;;;;;5054170;28;20327;-70
2022/05/29 03:42:58;;;;;;;3.07;1.70;;;10.80;99.90;;;;;;5048901;28;20286;-74
2022/05/29 03:45:26;;;;;;;3.13;2.00;;;10.70;99.90;;;;;;5068207;28;20204;-76
2022/05/29 03:47:53;;;;;;;3.13;2.03;;;10.80;99.90;;;;;;5057618;28;20212;-75
2022/05/29 03:50:23;;;;;;;4.90;1.67;;;10.70;99.90;;;;;;5047946;28;20231;-75
2022/05/29 03:52:50;;;;;;;5.10;1.83;;;10.60;99.90;;;;;;5048135;28;20258;-75
2022/05/29 03:55:20;;;;;;;3.33;2.10;;;10.60;99.90;;;;;;5067660;28;20253;-75
2022/05/29 03:57:47;;;;;;;2.07;1.87;;;10.50;99.90;;;;;;5067663;28;20201;-75
2022/05/29 04:00:15;;;;;;;3.07;1.90;;;10.50;99.90;;;;;;5067489;28;20665;-75
2022/05/29 04:02:42;;;;;;;5.20;1.90;;;10.40;99.90;;;;;;5053438;28;20235;-75
2022/05/29 04:05:09;;;;;;;4.90;2.37;;;10.50;99.90;;;;;;5067691;28;20206;-75
2022/05/29 04:13:06;;;;;;;4.10;1.70;;;10.50;99.90;;;;;;5065976;28;20214;-75
2022/05/29 04:15:33;;;;;;;4.07;1.50;;;10.50;99.90;;;;;;5067793;28;20233;-77
2022/05/29 04:17:59;;;;;;;2.60;1.53;;;10.60;99.90;;;;;;5060339;28;20207;-76
2022/05/29 04:20:26;;;;;;;5.10;1.87;;;10.70;99.90;;;;;;5066910;28;20207;-76
2022/05/29 04:22:54;;;;;;;5.13;1.93;;;10.50;99.90;;;;;;5066183;28;20273;-75
2022/05/29 04:25:21;;;;;;;7.67;2.10;;;10.40;99.90;;;;;;5067020;28;20713;-76
2022/05/29 04:27:47;;;;;;;4.47;1.93;;;10.50;99.90;;;;;;5067163;28;20207;-75
2022/05/29 04:30:14;;;;;;;4.30;1.90;;;10.40;99.90;;;;;;5067311;28;20207;-75
2022/05/29 04:35:25;;;;;;;4.37;2.00;;;10.40;99.90;;;;;;5070559;28;20672;-75
2022/05/29 04:37:53;;;;;;;3.70;2.13;;;10.40;99.90;;;;;;5070474;28;20723;-77
2022/05/29 04:40:20;;;;;;;3.73;2.00;;;10.40;99.90;;;;;;5070984;28;20207;-76
2022/05/29 04:42:46;;;;;;;6.00;1.87;;;10.40;99.90;;;;;;5068089;28;20292;-75
2022/05/29 04:45:13;;;;;;;2.13;1.67;;;10.40;99.90;;;;;;5050763;28;20633;-75
2022/05/29 04:47:40;;;;;;;6.47;1.90;;;10.50;99.90;;;;;;5050802;28;20208;-75
2022/05/29 04:50:07;;;;;;;4.93;2.07;;;10.40;99.90;;;;;;5050901;28;20212;-75
2022/05/29 04:52:35;;;;;;;3.33;1.77;;;10.50;99.90;;;;;;5050722;28;20212;-75
2022/05/29 04:55:03;;;;;;;5.37;2.00;;;10.50;99.90;;;;;;5059318;28;20200;-75
2022/05/29 04:57:30;;;;;;;3.03;1.90;;;10.50;99.90;;;;;;5070499;28;20204;-75
2022/05/29 04:59:57;;;;;;;3.73;1.80;;;10.50;99.90;;;;;;5070170;28;20223;-75
2022/05/29 05:02:24;;;;;;;3.93;2.03;;;10.50;99.90;;;;;;5069891;28;20728;-75
2022/05/29 05:04:51;;;;;;;5.67;2.07;;;10.50;99.90;;;;;;5051366;28;20207;-74
2022/05/29 05:07:17;;;;;;;5.27;2.10;;;10.40;99.90;;;;;;5052321;28;20200;-75
2022/05/29 05:09:44;;;;;;;6.40;2.40;;;10.50;99.90;;;;;;5049958;28;20216;-74
2022/05/29 05:12:12;;;;;;;4.77;2.27;;;10.50;99.90;;;;;;5049838;28;20581;-75
2022/05/29 05:14:39;;;;;;;5.73;1.80;;;10.50;99.90;;;;;;5066772;28;20208;-73
2022/05/29 05:17:05;;;;;;;2.63;1.87;;;10.50;99.90;;;;;;5062616;28;20219;-72
2022/05/29 05:19:32;;;;;;;3.90;2.27;;;10.60;99.90;;;;;;5069933;28;20269;-72
2022/05/29 05:22:01;;;;;;;4.90;2.30;;;10.60;99.90;;;;;;5069295;28;20298;-73
2022/05/29 05:24:28;;;;;;;6.53;2.10;;;10.70;99.90;;;;;;5064673;28;20254;-72
2022/05/29 05:26:55;;;;;;;3.67;2.33;;;10.70;99.90;;;;;;5059107;28;20282;-72
2022/05/29 05:29:23;;;;;;;3.40;2.00;;;10.80;99.90;;;;;;5050071;28;20212;-73
2022/05/29 05:31:49;;;;;;;5.57;1.90;;;10.90;99.90;;;;;;5049307;28;20262;-73
2022/05/29 05:34:16;;;;;;;3.77;2.10;;;10.80;99.90;;;;;;5065521;28;20196;-75
2022/05/29 05:36:43;;;;;;;5.17;2.20;;;10.90;99.90;;;;;;5055501;28;20258;-73
2022/05/29 05:39:09;;;;;;;3.03;2.07;;;10.90;99.90;;;;;;5049454;28;20585;-72
2022/05/29 05:41:36;;;;;;;6.70;2.67;;;10.90;99.90;;;;;;5048975;28;20244;-72
2022/05/29 05:44:04;;;;;;;5.23;2.60;;;10.90;99.90;;;;;;5049829;28;20224;-73
2022/05/29 05:46:32;;;;;;;5.27;2.40;;;10.90;99.90;;;;;;5061684;28;20195;-73
2022/05/29 05:48:59;;;;;;;5.33;2.20;;;10.90;99.90;;;;;;5069480;28;20215;-73
2022/05/29 05:51:27;;;;;;;6.67;2.17;;;11.00;99.90;;;;;;5069665;28;20203;-72
2022/05/29 05:53:53;;;;;;;6.93;2.40;;;11.00;99.90;;;;;;5069113;28;20781;-73
2022/05/29 05:56:20;;;;;;;4.80;2.30;;;11.00;99.90;;;;;;5068843;28;20261;-73
2022/05/29 05:58:47;;;;;;;4.33;2.63;;;11.00;99.90;;;;;;5069234;28;20215;-73
2022/05/29 06:01:16;;;;;;;5.63;2.30;;;11.10;99.90;;;;;;5068784;28;20702;-73
2022/05/29 06:03:44;;;;;;;2.37;2.17;;;11.20;99.90;;;;;;5069068;28;20294;-73
2022/05/29 06:06:14;;;;;;;4.43;2.10;;;11.10;99.90;;;;;;5068483;28;20203;-72
2022/05/29 06:08:41;;;;;;;6.20;2.43;;;11.10;99.90;;;;;;5069046;28;20299;-74
2022/05/29 06:11:07;;;;;;;6.03;2.10;;;11.20;99.90;;;;;;5068892;28;20215;-73
2022/05/29 06:13:35;;;;;;;4.40;2.17;;;11.30;99.90;;;;;;5068807;28;20200;-73
2022/05/29 06:16:06;;;;;;;3.17;2.47;;;11.30;99.90;;;;;;5066416;28;20227;-74
2022/05/29 06:18:33;;;;;;;4.20;2.50;;;11.30;99.90;;;;;;5064594;28;20711;-75
2022/05/29 06:21:06;;;;;;;6.33;2.57;;;11.30;99.90;;;;;;5068430;28;20551;-74
2022/05/29 06:23:34;;;;;;;6.23;2.57;;;11.30;99.90;;;;;;5068548;28;20234;-74
2022/05/29 06:26:04;;;;;;;6.90;2.10;;;11.30;99.90;;;;;;5061934;28;20208;-75
2022/05/29 06:28:31;;;;;;;5.43;2.40;;;11.40;99.90;;;;;;5054272;28;20301;-75
2022/05/29 06:30:58;;;;;;;3.23;2.13;;;11.40;99.90;;;;;;5068464;28;20204;-77
2022/05/29 06:33:26;;;;;;;3.03;1.93;;;11.40;99.90;;;;;;5057054;28;20235;-75
2022/05/29 06:35:53;;;;;;;4.17;2.20;;;11.40;99.90;;;;;;5053407;28;20242;-74
2022/05/29 06:38:21;;;;;;;5.47;2.40;;;11.40;99.90;;;;;;5068213;28;20736;-75
2022/05/29 06:40:49;;;;;;;5.03;2.17;;;11.50;99.90;;;;;;5068111;28;20238;-74
2022/05/29 06:43:17;;;;;;;2.70;2.00;;;11.60;99.90;;;;;;5068436;28;20238;-74
2022/05/29 06:45:43;;;;;;;3.93;2.10;;;11.60;99.90;;;;;;5064139;28;20204;-73
2022/05/29 06:48:11;;;;;;;6.30;2.20;;;11.60;99.90;;;;;;5060900;28;20222;-72
2022/05/29 06:50:38;;;;;;;5.07;2.23;;;11.60;99.90;;;;;;5058748;28;20334;-72
2022/05/29 06:53:05;;;;;;;5.03;2.40;;;11.50;99.90;;;;;;5047167;28;20208;-72
2022/05/29 06:55:32;;;;;;;3.87;2.50;;;11.60;99.90;;;;;;5047869;28;20273;-73
2022/05/29 06:57:59;;;;;;;3.23;2.43;;;11.60;99.90;;;;;;5047940;28;20201;-76
2022/05/29 07:08:40;;;;;;;5.03;2.10;;;11.80;99.90;;;;;;5048005;28;20249;-82
2022/05/29 07:11:10;;;;;;;3.90;1.93;;;11.80;99.90;;;;;;5048372;28;20273;-81
2022/05/29 07:13:37;;;;;;;4.17;2.07;;;11.80;99.90;;;;;;5048766;28;20258;-82
2022/05/29 07:16:04;;;;;;;4.00;2.20;;;11.90;99.90;;;;;;5048477;28;20204;-81
2022/05/29 07:18:31;;;;;;;3.60;1.77;;;12.00;99.90;;;;;;5064137;28;20234;-82
2022/05/29 07:21:00;;;;;;;4.73;1.87;;;12.00;99.90;;;;;;5068159;28;20207;-81
2022/05/29 07:23:26;;;;;;;3.00;2.07;;;11.90;99.90;;;;;;5068268;28;20231;-81
2022/05/29 07:25:54;;;;;;;5.83;2.23;;;11.90;99.90;;;;;;5062997;28;20212;-77
2022/05/29 07:28:22;;;;;;;5.20;2.37;;;11.80;99.90;;;;;;5068020;28;20211;-74
2022/05/29 07:30:49;;;;;;;4.67;2.10;;;11.70;99.90;;;;;;5067812;28;20207;-74
2022/05/29 07:33:16;;;;;;;4.83;2.20;;;11.70;99.90;;;;;;5054928;28;20266;-77
2022/05/29 07:35:43;;;;;;;7.63;2.50;;;11.60;99.90;;;;;;5054609;28;20749;-77
2022/05/29 07:38:10;;;;;;;4.07;2.03;;;11.60;99.90;;;;;;5067645;28;20203;-77
2022/05/29 07:40:37;;;;;;;4.23;1.90;;;11.60;99.90;;;;;;5067823;28;20207;-76
2022/05/29 07:43:22;;;;;;;7.60;2.47;;;11.60;99.90;;;;;;5067660;28;20293;-77
2022/05/29 07:45:53;;;;;;;5.80;2.27;;;11.70;99.90;;;;;;5067270;28;20206;-76
2022/05/29 07:48:21;;;;;;;4.53;1.97;;;11.70;99.90;;;;;;5061890;28;20564;-75
2022/05/29 07:50:48;;;;;;;4.83;2.23;;;11.80;99.90;;;;;;5068083;28;20199;-76
2022/05/29 07:53:15;;;;;;;5.50;2.40;;;11.70;99.90;;;;;;5066975;28;20674;-76
2022/05/29 07:55:43;;;;;;;4.23;2.07;;;11.60;99.90;;;;;;5062860;28;20368;-73
2022/05/29 07:58:11;;;;;;;4.63;2.23;;;11.80;99.90;;;;;;5065573;28;20336;-76
2022/05/29 08:00:38;;;;;;;5.83;2.20;;;12.10;99.90;;;;;;5059919;28;20249;-76
2022/05/29 08:03:10;;;;;;;6.43;2.10;;;12.40;99.90;;;;;;5067052;28;20235;-76
2022/05/29 08:05:37;;;;;;;2.87;2.10;;;12.50;99.90;;;;;;5063876;28;20788;-76
2022/05/29 08:08:08;;;;;;;4.73;1.97;;;12.60;99.90;;;;;;5050577;28;20727;-76
2022/05/29 08:10:37;;;;;;;5.90;2.17;;;12.80;99.90;;;;;;5051282;28;20192;-77
2022/05/29 08:13:04;;;;;;;4.67;2.10;;;12.90;99.90;;;;;;5051580;28;20262;-77
2022/05/29 08:15:31;;;;;;;4.97;1.77;;;13.00;99.90;;;;;;5051903;28;20257;-77
2022/05/29 08:17:58;;;;;;;5.57;2.20;;;13.10;99.90;;;;;;5061778;28;20715;-76
2022/05/29 08:20:27;;;;;;;7.20;2.20;;;13.20;99.90;;;;;;5069091;28;20273;-75
2022/05/29 08:22:53;;;;;;;3.23;1.80;;;13.30;99.90;;;;;;5050989;28;20251;-75
2022/05/29 08:30:53;;;;;;;4.00;1.97;;;13.00;99.90;;;;;;5065003;28;20318;-75
2022/05/29 08:33:22;;;;;;;7.10;1.90;;;12.90;99.90;;;;;;5056838;28;20203;-75
2022/05/29 08:35:54;;;;;;;5.00;1.73;;;12.90;99.90;;;;;;5070236;28;20207;-75
2022/05/29 08:38:20;;;;;;;3.87;2.10;;;12.80;99.90;;;;;;5070857;28;20245;-75
2022/05/29 08:40:49;;;;;;;2.17;1.77;;;12.70;99.90;;;;;;5070735;28;20239;-75
2022/05/29 08:43:25;;;;;;;2.83;1.53;;;12.70;99.90;;;;;;5070168;28;20243;-76
2022/05/29 08:45:52;;;;;;;2.93;1.53;;;12.60;99.90;;;;;;5070737;28;20638;-79
2022/05/29 08:48:21;;;;;;;3.30;1.70;;;12.60;99.90;;;;;;5071076;28;20268;-78
2022/05/29 08:50:58;;;;;;;2.33;1.40;;;12.60;99.90;;;;;;5070859;28;20195;-79
2022/05/29 08:53:34;;;;;;;5.33;1.70;;;12.60;99.90;;;;;;5069833;28;20202;-79
2022/05/29 08:56:11;;;;;;;3.27;1.60;;;12.70;99.90;;;;;;5070570;28;20201;-77
2022/05/29 08:58:49;;;;;;;5.07;2.13;;;12.80;99.90;;;;;;5070855;28;20218;-77
2022/05/29 09:01:24;;;;;;;3.30;1.90;;;12.90;99.90;;;;;;5070359;28;20638;-77
2022/05/29 09:03:56;;;;;;;4.60;1.87;;;13.10;99.90;;;;;;5050751;28;20241;-77
2022/05/29 09:06:30;;;;;;;4.20;2.00;;;13.20;99.90;;;;;;5050295;28;20659;-77
2022/05/29 09:09:03;;;;;;;3.53;2.10;;;13.40;99.90;;;;;;5050078;28;20589;-77
2022/05/29 09:11:35;;;;;;;3.27;1.93;;;13.40;99.90;;;;;;5050994;28;20189;-77
2022/05/29 09:14:12;;;;;;;4.30;2.10;;;13.30;99.90;;;;;;5060020;28;20551;-77
2022/05/29 09:16:44;;;;;;;4.00;2.10;;;13.00;99.90;;;;;;5053590;28;20654;-77
2022/05/29 09:19:30;;;;;;;4.57;2.30;;;12.60;99.90;;;;;;5048562;28;20192;-77
2022/05/29 09:22:02;;;;;;;3.43;2.20;;;12.30;99.90;;;;;;5061436;28;20215;-77
2022/05/29 09:24:55;;;;;;;3.40;2.30;;;12.00;99.90;;;;;;5048736;28;20277;-79
2022/05/29 09:27:23;;;;;;;3.20;1.60;;;12.10;99.90;;;;;;5056398;28;20208;-78
2022/05/29 09:29:51;;;;;;;5.60;3.83;;;12.10;99.90;;;;;;5068093;28;20261;-77
2022/05/29 09:32:20;;;;;;;7.40;6.67;;;12.10;99.90;;;;;;5062201;28;20748;-77
2022/05/29 09:34:58;;;;;;;3.93;2.73;;;12.10;99.90;;;;;;5048572;28;20232;-77
2022/05/29 09:37:34;;;;;;;1.90;1.60;;;12.20;99.90;;;;;;5048328;28;20214;-78
2022/05/29 09:40:02;;;;;;;1.57;1.47;;;12.20;99.90;;;;;;5063117;28;20195;-77
2022/05/29 09:42:38;;;;;;;1.63;1.53;;;12.40;99.90;;;;;;5067237;28;20231;-78
2022/05/29 09:45:15;;;;;;;2.97;1.43;;;12.60;99.90;;;;;;5068828;28;20195;-77
2022/05/29 09:50:43;;;;;;;2.73;1.13;;;12.50;99.90;;;;;;5067703;28;20707;-78
2022/05/29 09:53:15;;;;;;;1.53;1.10;;;12.60;99.90;;;;;;5057283;28;20192;-78
2022/05/29 09:55:50;;;;;;;0.70;0.67;;;12.90;99.90;;;;;;5067783;28;20195;-78
2022/05/29 09:58:25;;;;;;;1.17;0.60;;;12.70;99.90;;;;;;5067206;28;20196;-78
2022/05/29 10:00:58;;;;;;;0.70;0.70;;;12.70;99.90;;;;;;5048267;28;20250;-78
2022/05/29 10:03:37;;;;;;;2.30;1.07;;;12.80;99.90;;;;;;5062490;28;20991;-77
2022/05/29 10:06:18;;;;;;;1.17;0.90;;;12.70;99.90;;;;;;5068586;28;20199;-77
2022/05/29 10:08:46;;;;;;;1.83;1.60;;;12.80;99.90;;;;;;5067664;28;20929;-78
2022/05/29 10:11:20;;;;;;;1.83;1.67;;;13.00;99.90;;;;;;5068252;28;20866;-78
2022/05/29 10:13:47;;;;;;;1.50;1.40;;;13.10;99.90;;;;;;5054406;28;20216;-77
2022/05/29 10:16:29;;;;;;;1.53;1.20;;;13.20;99.90;;;;;;5047861;28;20261;-78
2022/05/29 10:18:56;;;;;;;2.17;1.10;;;13.10;99.90;;;;;;5066736;28;20218;-79
2022/05/29 10:21:25;;;;;;;2.87;0.87;;;13.20;99.90;;;;;;5056498;28;20219;-78
2022/05/29 10:23:58;;;;;;;1.17;1.00;;;13.20;99.90;;;;;;5047382;28;20848;-77
2022/05/29 10:26:32;;;;;;;2.70;2.00;;;13.40;99.90;;;;;;5047761;28;20201;-77
2022/05/29 10:29:01;;;;;;;1.43;1.13;;;13.70;99.90;;;;;;5046918;28;20712;-77
2022/05/29 10:31:34;;;;;;;1.53;1.10;;;13.70;99.90;;;;;;5058477;28;20274;-78
2022/05/29 10:34:05;;;;;;;2.53;1.17;;;13.90;99.90;;;;;;5048114;28;20196;-77
2022/05/29 10:36:33;;;;;;;3.10;1.30;;;14.10;99.90;;;;;;5063571;28;20214;-78
2022/05/29 10:39:08;;;;;;;2.37;1.57;;;14.50;99.90;;;;;;5066220;28;20715;-78
2022/05/29 10:41:37;;;;;;;3.97;1.50;;;14.70;99.90;;;;;;5066520;28;20660;-77
2022/05/29 10:44:04;;;;;;;2.10;1.20;;;14.80;99.90;;;;;;5047394;28;20235;-77
2022/05/29 10:46:40;;;;;;;3.03;1.70;;;14.90;99.90;;;;;;5047168;28;20204;-77
2022/05/29 10:49:23;;;;;;;1.73;1.30;;;14.40;99.90;;;;;;5046902;28;20203;-78
2022/05/29 10:52:14;;;;;;;3.27;1.60;;;13.70;99.90;;;;;;5046113;28;20627;-77
2022/05/29 10:55:11;;;;;;;2.37;1.70;;;12.80;99.90;;;;;;5035474;28;20682;-79
2022/05/29 10:57:56;;;;;;;2.33;1.77;;;12.20;99.90;;;;;;5046660;28;20192;-79
2022/05/29 11:00:37;;;;;;;2.23;1.80;;;12.00;99.90;;;;;;5064665;28;20199;-79
2022/05/29 11:03:33;;;;;;;5.13;2.20;;;11.80;99.90;;;;;;5065484;28;20222;-78
2022/05/29 11:06:20;;;;;;;4.37;2.40;;;11.80;99.90;;;;;;5066113;28;20196;-78
2022/05/29 11:08:59;;;;;;;2.20;1.97;;;11.80;99.90;;;;;;5065994;28;20195;-78
2022/05/29 11:11:38;;;;;;;2.23;2.03;;;12.10;99.90;;;;;;5046238;28;20662;-79
2022/05/29 11:14:16;;;;;;;2.50;1.90;;;12.30;99.90;;;;;;5064004;28;20746;-78
2022/05/29 11:16:50;;;;;;;3.43;1.83;;;12.40;99.90;;;;;;5046731;28;20192;-78
2022/05/29 11:19:49;;;;;;;2.07;1.77;;;12.60;99.90;;;;;;5066021;28;20230;-78
2022/05/29 11:22:24;;;;;;;3.13;2.00;;;12.80;99.90;;;;;;5043206;28;20687;-78
2022/05/29 11:25:14;;;;;;;3.33;2.10;;;13.00;99.90;;;;;;5046137;28;20231;-79
2022/05/29 11:28:15;;;;;;;2.20;1.73;;;13.20;99.90;;;;;;5046480;28;20200;-79
2022/05/29 11:30:55;;;;;;;2.57;1.90;;;13.40;99.90;;;;;;5046640;28;20197;-78
2022/05/29 11:33:35;;;;;;;4.63;2.37;;;13.70;99.90;;;;;;5045422;28;20600;-78
2022/05/29 11:36:21;;;;;;;3.87;3.57;;;14.10;99.90;;;;;;5045967;28;20199;-78
2022/05/29 11:39:08;;;;;;;2.00;1.87;;;14.50;99.90;;;;;;5045532;28;20196;-79
2022/05/29 11:41:40;;;;;;;2.70;1.73;;;14.80;99.90;;;;;;5064723;28;20239;-79
2022/05/29 11:44:18;;;;;;;1.87;1.60;;;15.00;99.90;;;;;;5065679;28;20686;-78
2022/05/29 11:52:31;;;;;;;6.00;1.83;;;15.30;99.90;;;;;;5047154;28;20685;-78
2022/05/29 11:55:05;;;;;;;5.27;1.67;;;15.30;99.90;;;;;;5045574;28;20207;-78
2022/05/29 11:57:39;;;;;;;2.37;1.60;;;15.20;99.90;;;;;;5045922;28;20203;-78
2022/05/29 12:00:17;;;;;;;3.20;1.73;;;15.20;99.90;;;;;;5048039;28;20195;-78
2022/05/29 12:02:53;;;;;;;1.80;1.50;;;15.00;99.90;;;;;;5065585;28;20745;-78
2022/05/29 12:05:28;;;;;;;1.70;1.60;;;14.80;99.90;;;;;;5061890;28;20208;-77
2022/05/29 12:08:03;;;;;;;2.50;1.90;;;14.90;99.90;;;;;;5045622;28;20211;-78
2022/05/29 12:10:33;;;;;;;2.87;1.37;;;14.90;99.90;;;;;;5046120;28;20241;-78
2022/05/29 12:13:03;;;;;;;2.17;1.57;;;15.20;99.90;;;;;;5045588;28;20208;-79
2022/05/29 12:15:31;;;;;;;1.70;1.60;;;15.60;99.90;;;;;;5045561;28;20230;-78
2022/05/29 12:18:04;;;;;;;1.40;1.30;;;15.70;99.90;;;;;;5055956;28;20211;-77
2022/05/29 12:20:40;;;;;;;1.97;1.47;;;16.00;99.90;;;;;;5065382;28;20994;-78
2022/05/29 12:23:12;;;;;;;2.40;1.20;;;16.10;99.90;;;;;;5064922;28;20189;-77
2022/05/29 12:25:43;;;;;;;2.70;1.20;;;15.70;99.90;;;;;;5047892;28;20192;-77
2022/05/29 12:28:26;;;;;;;2.50;1.30;;;15.40;99.90;;;;;;5054840;28;20222;-77
2022/05/29 12:30:59;;;;;;;0.80;0.80;;;14.80;99.90;;;;;;5065254;28;20677;-78
2022/05/29 12:33:27;;;;;;;0.80;0.70;;;14.50;99.90;;;;;;5065080;28;20195;-78
2022/05/29 12:36:10;;;;;;;1.30;0.90;;;14.10;99.90;;;;;;5050071;28;20212;-78
2022/05/29 12:38:49;;;;;;;2.83;1.07;;;14.10;99.90;;;;;;5045316;28;20196;-77
2022/05/29 12:41:43;;;;;;;1.30;1.20;;;13.80;99.90;;;;;;5044985;28;20301;-75
2022/05/29 12:44:37;;;;;;;2.50;2.00;;;13.80;99.90;;;;;;5044730;28;20228;-75
2022/05/29 12:47:33;;;;;;;2.53;1.47;;;13.70;99.90;;;;;;5044410;28;20270;-77
2022/05/29 12:50:23;;;;;;;1.20;0.97;;;13.60;99.90;;;;;;5059026;28;20723;-76
2022/05/29 12:53:18;;;;;;;1.30;1.20;;;13.70;99.90;;;;;;5067911;28;20208;-77
2022/05/29 12:56:03;;;;;;;1.63;1.20;;;13.90;99.90;;;;;;5069102;28;20245;-76
2022/05/29 12:58:48;;;;;;;1.43;1.20;;;14.00;99.90;;;;;;5068890;28;20199;-76
2022/05/29 13:01:42;;;;;;;1.80;1.10;;;14.10;99.90;;;;;;5060464;28;20250;-76
2022/05/29 13:04:41;;;;;;;1.40;1.30;;;13.90;99.90;;;;;;5048660;28;20250;-77
2022/05/29 13:07:24;;;;;;;2.10;1.20;;;14.20;99.90;;;;;;5049026;28;20254;-76
2022/05/29 13:10:06;;;;;;;3.20;1.33;;;14.10;99.90;;;;;;5048237;28;20196;-76
2022/05/29 13:12:38;;;;;;;2.57;1.23;;;14.30;99.90;;;;;;5049523;28;20199;-76
2022/05/29 13:15:07;;;;;;;2.23;1.30;;;13.90;99.90;;;;;;5048380;28;20205;-76
2022/05/29 13:17:36;;;;;;;5.03;1.50;;;14.10;99.90;;;;;;5055436;28;20211;-76
2022/05/29 13:20:09;;;;;;;2.77;1.50;;;14.40;99.90;;;;;;5048623;28;20232;-76
2022/05/29 13:22:58;;;;;;;2.53;1.40;;;14.60;99.90;;;;;;5068430;28;20204;-76
2022/05/29 13:25:27;;;;;;;1.33;1.00;;;14.80;99.90;;;;;;5050144;28;20232;-76
2022/05/29 13:27:56;;;;;;;2.00;1.10;;;14.90;99.90;;;;;;5060634;28;20199;-76
2022/05/29 13:31:07;;;;;;;1.10;0.90;;;15.10;99.90;;;;;;5068457;28;20207;-76
2022/05/29 13:33:53;;;;;;;1.77;0.90;;;15.40;99.90;;;;;;5055300;28;20219;-76
2022/05/29 13:37:03;;;;;;;1.50;1.17;;;15.80;99.90;;;;;;5052193;28;20184;-76
2022/05/29 13:40:06;;;;;;;2.10;1.90;;;16.10;99.90;;;;;;5067843;28;20196;-75
2022/05/29 13:42:56;;;;;;;1.83;0.90;;;16.50;99.90;;;;;;5065751;28;20288;-78
2022/05/29 13:45:54;;;;;;;1.40;1.10;;;16.80;99.90;;;;;;5063386;28;20281;-77
2022/05/29 13:48:24;;;;;;;0.97;0.87;;;16.90;99.90;;;;;;5067556;28;20245;-76